Date,TemperatureHighF,TemperatureAvgF,TemperatureLowF,DewpointHighF,DewpointAvgF,DewpointLowF,HumidityHigh,HumidityAvg,HumidityLow,PressureMaxIn,PressureMinIn,WindSpeedMaxMPH,WindSpeedAvgMPH,GustSpeedMaxMPH,PrecipitationSumIn
2013-11-1,68,39,53,63,-2,-100,97,55,79,29.86,29.63,0,-383,0,0.00
2013-11-2,68,53,40,52,43,36,98,73,37,29.98,29.70,0,0,0,0.00
2013-11-3,63,46,34,43,37,33,97,76,35,30.37,29.98,0,0,0,0.00
2013-11-4,58,43,32,39,34,30,96,74,39,30.51,30.36,0,0,0,0.00
2013-11-5,58,44,31,48,39,29,96,82,52,30.57,30.42,0,0,0,0.00
2013-11-6,67,45,47,56,23,-100,97,71,65,30.43,30.12,0,-183,0,0.00
2013-11-7,70,45,39,59,22,-100,98,62,26,30.13,29.95,0,-147,0,0.00
2013-11-8,60,43,30,33,28,20,89,62,23,30.32,30.14,0,0,0,0.00
2013-11-9,57,43,26,36,30,25,95,65,36,30.38,30.20,0,0,0,0.00
2013-11-10,71,51,34,40,29,-100,95,53,22,30.22,30.10,0,-32,0,0.00
2013-11-11,61,44,30,34,26,-100,90,58,25,30.34,30.14,0,-21,0,0.00
2013-11-12,64,40,27,38,26,-100,93,63,31,30.47,30.07,0,-21,0,0.00
2013-11-13,50,32,20,22,11,-100,85,53,25,30.54,30.45,0,-52,0,0.00
2013-11-14,58,35,19,27,19,-100,94,62,21,30.49,30.33,0,-21,0,0.00
2013-11-15,56,40,25,45,28,-100,96,70,39,30.34,30.20,0,-31,0,0.00
2013-11-16,63,50,46,54,41,-100,97,84,73,30.27,30.17,0,-64,0,0.00
2013-11-17,60,53,53,57,45,-100,98,88,88,30.20,29.88,0,-63,0,0.00
2013-11-18,72,56,43,61,36,-100,98,59,21,29.98,29.81,0,-62,0,0.00
2013-11-19,56,43,34,33,24,-100,85,54,28,30.26,29.98,0,-32,0,0.00
2013-11-20,51,40,33,33,24,-100,88,60,44,30.45,30.25,0,-42,0,0.00
2013-11-21,52,44,42,47,31,-100,96,72,64,30.48,30.37,0,-63,0,0.00
2013-11-22,62,52,48,58,45,-100,97,88,85,30.40,30.10,0,-52,0,0.00
2013-11-23,59,49,38,55,35,-100,98,69,42,30.20,30.06,0,-53,0,0.00
2013-11-24,42,32,22,23,7,-100,79,43,22,30.53,30.20,0,-42,0,0.00
2013-11-25,40,29,18,19,9,-100,89,52,29,30.57,30.35,0,-42,0,0.00
2013-11-26,43,34,31,42,19,-100,97,80,49,30.33,29.63,0,-116,0,0.00
2013-11-27,45,32,23,44,12,-100,97,66,53,30.21,29.55,0,-126,0,0.00
2013-11-28,47,28,17,28,17,-100,94,72,37,30.49,30.21,0,-32,0,0.00
2013-11-29,54,33,21,31,18,-100,96,68,30,30.61,30.48,0,-52,0,0.00
2013-11-30,47,32,24,27,19,-100,92,70,41,30.65,30.39,0,-42,0,0.00